sensor_id;sensor_type;location;lat;lon;timestamp;P1;durP1;ratioP1;P2;durP2;ratioP2
22026;SDS011;11177;50.966;10.070;2023-04-06T00:01:02;10.00;;;7.50;;
22026;SDS011;11177;50.966;10.070;2023-04-06T00:03:29;10.25;;;7.03;;
22026;SDS011;11177;50.966;10.070;2023-04-06T00:05:56;11.38;;;7.90;;
22026;SDS011;11177;50.966;10.070;2023-04-06T00:08:22;16.77;;;8.85;;
22026;SDS011;11177;50.966;10.070;2023-04-06T00:10:50;14.00;;;7.32;;
22026;SDS011;11177;50.966;10.070;2023-04-06T00:13:16;11.88;;;7.75;;
22026;SDS011;11177;50.966;10.070;2023-04-06T00:15:43;14.40;;;8.60;;
22026;SDS011;11177;50.966;10.070;2023-04-06T00:18:10;9.70;;;7.25;;
22026;SDS011;11177;50.966;10.070;2023-04-06T00:20:37;23.55;;;11.68;;
22026;SDS011;11177;50.966;10.070;2023-04-06T00:23:04;30.02;;;13.45;;
22026;SDS011;11177;50.966;10.070;2023-04-06T00:25:31;22.95;;;11.80;;
22026;SDS011;11177;50.966;10.070;2023-04-06T00:27:58;15.50;;;9.52;;
22026;SDS011;11177;50.966;10.070;2023-04-06T00:30:25;22.60;;;11.02;;
22026;SDS011;11177;50.966;10.070;2023-04-06T00:32:52;21.27;;;10.80;;
22026;SDS011;11177;50.966;10.070;2023-04-06T00:35:19;18.35;;;10.20;;
22026;SDS011;11177;50.966;10.070;2023-04-06T00:37:46;18.40;;;10.77;;
22026;SDS011;11177;50.966;10.070;2023-04-06T00:40:14;18.63;;;10.10;;
22026;SDS011;11177;50.966;10.070;2023-04-06T00:42:41;15.82;;;9.65;;
22026;SDS011;11177;50.966;10.070;2023-04-06T00:45:09;14.60;;;9.23;;
22026;SDS011;11177;50.966;10.070;2023-04-06T00:47:36;13.50;;;8.57;;
22026;SDS011;11177;50.966;10.070;2023-04-06T00:50:03;14.32;;;8.70;;
22026;SDS011;11177;50.966;10.070;2023-04-06T00:52:30;14.63;;;8.40;;
22026;SDS011;11177;50.966;10.070;2023-04-06T00:54:57;12.45;;;7.80;;
22026;SDS011;11177;50.966;10.070;2023-04-06T00:57:24;13.63;;;7.97;;
22026;SDS011;11177;50.966;10.070;2023-04-06T00:59:51;13.05;;;8.52;;
22026;SDS011;11177;50.966;10.070;2023-04-06T01:02:19;11.63;;;7.75;;
22026;SDS011;11177;50.966;10.070;2023-04-06T01:04:46;11.75;;;7.95;;
22026;SDS011;11177;50.966;10.070;2023-04-06T01:07:12;11.77;;;7.40;;
22026;SDS011;11177;50.966;10.070;2023-04-06T01:09:39;11.93;;;7.80;;
22026;SDS011;11177;50.966;10.070;2023-04-06T01:12:08;12.10;;;7.78;;
22026;SDS011;11177;50.966;10.070;2023-04-06T01:14:35;13.25;;;7.78;;
22026;SDS011;11177;50.966;10.070;2023-04-06T01:17:02;11.93;;;7.85;;
22026;SDS011;11177;50.966;10.070;2023-04-06T01:19:29;13.00;;;7.80;;
22026;SDS011;11177;50.966;10.070;2023-04-06T01:21:55;14.68;;;8.40;;
22026;SDS011;11177;50.966;10.070;2023-04-06T01:24:22;12.77;;;7.72;;
22026;SDS011;11177;50.966;10.070;2023-04-06T01:26:49;14.90;;;8.05;;
22026;SDS011;11177;50.966;10.070;2023-04-06T01:29:16;14.90;;;8.15;;
22026;SDS011;11177;50.966;10.070;2023-04-06T01:31:43;14.10;;;8.07;;
22026;SDS011;11177;50.966;10.070;2023-04-06T01:34:09;15.25;;;8.40;;
22026;SDS011;11177;50.966;10.070;2023-04-06T01:36:36;14.35;;;8.45;;
22026;SDS011;11177;50.966;10.070;2023-04-06T01:39:03;15.15;;;8.65;;
22026;SDS011;11177;50.966;10.070;2023-04-06T01:41:30;14.90;;;8.75;;
22026;SDS011;11177;50.966;10.070;2023-04-06T01:43:57;15.07;;;9.43;;
22026;SDS011;11177;50.966;10.070;2023-04-06T01:46:24;14.25;;;9.07;;
22026;SDS011;11177;50.966;10.070;2023-04-06T01:48:51;16.08;;;8.55;;
22026;SDS011;11177;50.966;10.070;2023-04-06T01:51:19;12.65;;;8.50;;
22026;SDS011;11177;50.966;10.070;2023-04-06T01:53:46;12.75;;;8.60;;
22026;SDS011;11177;50.966;10.070;2023-04-06T01:56:12;16.70;;;8.52;;
22026;SDS011;11177;50.966;10.070;2023-04-06T01:58:39;14.75;;;8.70;;
22026;SDS011;11177;50.966;10.070;2023-04-06T02:01:06;12.85;;;8.77;;
22026;SDS011;11177;50.966;10.070;2023-04-06T02:03:33;13.43;;;8.65;;
22026;SDS011;11177;50.966;10.070;2023-04-06T02:06:00;13.68;;;8.70;;
22026;SDS011;11177;50.966;10.070;2023-04-06T02:08:27;15.35;;;8.57;;
22026;SDS011;11177;50.966;10.070;2023-04-06T02:10:53;12.45;;;7.78;;
22026;SDS011;11177;50.966;10.070;2023-04-06T02:13:20;12.32;;;8.18;;
22026;SDS011;11177;50.966;10.070;2023-04-06T02:15:47;14.00;;;9.07;;
22026;SDS011;11177;50.966;10.070;2023-04-06T02:18:14;12.10;;;7.72;;
22026;SDS011;11177;50.966;10.070;2023-04-06T02:20:41;16.23;;;8.38;;
22026;SDS011;11177;50.966;10.070;2023-04-06T02:23:08;11.38;;;7.95;;
22026;SDS011;11177;50.966;10.070;2023-04-06T02:25:35;13.43;;;8.23;;
22026;SDS011;11177;50.966;10.070;2023-04-06T02:28:02;12.02;;;7.95;;
22026;SDS011;11177;50.966;10.070;2023-04-06T02:30:29;10.25;;;7.65;;
22026;SDS011;11177;50.966;10.070;2023-04-06T02:32:59;14.38;;;7.88;;
22026;SDS011;11177;50.966;10.070;2023-04-06T02:35:27;12.75;;;8.20;;
22026;SDS011;11177;50.966;10.070;2023-04-06T02:37:54;10.57;;;8.00;;
22026;SDS011;11177;50.966;10.070;2023-04-06T02:40:21;16.35;;;8.77;;
22026;SDS011;11177;50.966;10.070;2023-04-06T02:42:48;12.73;;;8.00;;
22026;SDS011;11177;50.966;10.070;2023-04-06T02:45:15;11.18;;;7.57;;
22026;SDS011;11177;50.966;10.070;2023-04-06T02:47:42;11.70;;;7.57;;
22026;SDS011;11177;50.966;10.070;2023-04-06T02:50:09;11.20;;;7.45;;
22026;SDS011;11177;50.966;10.070;2023-04-06T02:52:36;12.98;;;7.80;;
22026;SDS011;11177;50.966;10.070;2023-04-06T02:55:03;12.50;;;7.85;;
22026;SDS011;11177;50.966;10.070;2023-04-06T02:57:31;13.18;;;8.07;;
22026;SDS011;11177;50.966;10.070;2023-04-06T02:59:58;12.40;;;7.97;;
22026;SDS011;11177;50.966;10.070;2023-04-06T03:02:24;12.73;;;8.05;;
22026;SDS011;11177;50.966;10.070;2023-04-06T03:04:52;11.63;;;8.32;;
22026;SDS011;11177;50.966;10.070;2023-04-06T03:07:18;11.82;;;8.02;;
22026;SDS011;11177;50.966;10.070;2023-04-06T03:09:45;11.85;;;7.90;;
22026;SDS011;11177;50.966;10.070;2023-04-06T03:12:12;13.35;;;8.02;;
22026;SDS011;11177;50.966;10.070;2023-04-06T03:14:39;13.27;;;8.60;;
22026;SDS011;11177;50.966;10.070;2023-04-06T03:17:06;12.18;;;7.88;;
22026;SDS011;11177;50.966;10.070;2023-04-06T03:19:32;13.50;;;8.63;;
22026;SDS011;11177;50.966;10.070;2023-04-06T03:21:59;15.32;;;8.73;;
22026;SDS011;11177;50.966;10.070;2023-04-06T03:24:27;16.35;;;8.15;;
22026;SDS011;11177;50.966;10.070;2023-04-06T03:26:53;12.18;;;8.65;;
22026;SDS011;11177;50.966;10.070;2023-04-06T03:29:21;14.63;;;9.05;;
22026;SDS011;11177;50.966;10.070;2023-04-06T03:31:48;15.60;;;9.25;;
22026;SDS011;11177;50.966;10.070;2023-04-06T03:34:15;15.68;;;8.80;;
22026;SDS011;11177;50.966;10.070;2023-04-06T03:36:42;12.90;;;8.95;;
22026;SDS011;11177;50.966;10.070;2023-04-06T03:39:09;14.55;;;9.32;;
22026;SDS011;11177;50.966;10.070;2023-04-06T03:41:36;14.07;;;9.02;;
22026;SDS011;11177;50.966;10.070;2023-04-06T03:44:03;13.15;;;8.52;;
22026;SDS011;11177;50.966;10.070;2023-04-06T03:46:30;16.00;;;9.13;;
22026;SDS011;11177;50.966;10.070;2023-04-06T03:48:56;15.80;;;9.30;;
22026;SDS011;11177;50.966;10.070;2023-04-06T03:51:23;14.35;;;9.02;;
22026;SDS011;11177;50.966;10.070;2023-04-06T03:53:50;14.90;;;8.98;;
22026;SDS011;11177;50.966;10.070;2023-04-06T03:56:17;13.68;;;8.45;;
22026;SDS011;11177;50.966;10.070;2023-04-06T03:58:44;13.95;;;9.10;;
22026;SDS011;11177;50.966;10.070;2023-04-06T04:01:12;13.35;;;8.40;;
22026;SDS011;11177;50.966;10.070;2023-04-06T04:03:39;14.10;;;8.82;;
22026;SDS011;11177;50.966;10.070;2023-04-06T04:06:06;17.63;;;8.45;;
22026;SDS011;11177;50.966;10.070;2023-04-06T04:08:33;14.77;;;8.75;;
22026;SDS011;11177;50.966;10.070;2023-04-06T04:11:00;14.48;;;8.77;;
22026;SDS011;11177;50.966;10.070;2023-04-06T04:13:27;14.48;;;9.27;;
22026;SDS011;11177;50.966;10.070;2023-04-06T04:15:54;14.98;;;8.85;;
22026;SDS011;11177;50.966;10.070;2023-04-06T04:18:20;13.40;;;8.75;;
22026;SDS011;11177;50.966;10.070;2023-04-06T04:20:47;14.45;;;9.18;;
22026;SDS011;11177;50.966;10.070;2023-04-06T04:23:14;14.38;;;9.50;;
22026;SDS011;11177;50.966;10.070;2023-04-06T04:25:43;14.35;;;9.45;;
22026;SDS011;11177;50.966;10.070;2023-04-06T04:28:10;15.02;;;9.68;;
22026;SDS011;11177;50.966;10.070;2023-04-06T04:30:37;15.15;;;9.27;;
22026;SDS011;11177;50.966;10.070;2023-04-06T04:33:04;15.30;;;9.80;;
22026;SDS011;11177;50.966;10.070;2023-04-06T04:35:31;18.08;;;9.57;;
22026;SDS011;11177;50.966;10.070;2023-04-06T04:37:57;19.35;;;9.38;;
22026;SDS011;11177;50.966;10.070;2023-04-06T04:40:24;14.90;;;10.05;;
22026;SDS011;11177;50.966;10.070;2023-04-06T04:42:51;15.57;;;9.43;;
22026;SDS011;11177;50.966;10.070;2023-04-06T04:45:18;13.73;;;9.68;;
22026;SDS011;11177;50.966;10.070;2023-04-06T04:47:45;16.30;;;9.43;;
22026;SDS011;11177;50.966;10.070;2023-04-06T04:50:11;15.25;;;9.65;;
22026;SDS011;11177;50.966;10.070;2023-04-06T04:52:38;14.95;;;9.40;;
22026;SDS011;11177;50.966;10.070;2023-04-06T04:55:05;17.60;;;10.00;;
22026;SDS011;11177;50.966;10.070;2023-04-06T04:57:32;15.57;;;9.43;;
22026;SDS011;11177;50.966;10.070;2023-04-06T04:59:59;14.35;;;9.63;;
22026;SDS011;11177;50.966;10.070;2023-04-06T05:02:26;14.48;;;9.48;;
22026;SDS011;11177;50.966;10.070;2023-04-06T05:04:53;15.85;;;9.68;;
22026;SDS011;11177;50.966;10.070;2023-04-06T05:07:20;16.98;;;9.90;;
22026;SDS011;11177;50.966;10.070;2023-04-06T05:09:47;15.57;;;9.73;;
22026;SDS011;11177;50.966;10.070;2023-04-06T05:12:14;16.40;;;9.85;;
22026;SDS011;11177;50.966;10.070;2023-04-06T05:14:41;20.40;;;9.90;;
22026;SDS011;11177;50.966;10.070;2023-04-06T05:17:08;16.70;;;9.65;;
22026;SDS011;11177;50.966;10.070;2023-04-06T05:19:35;16.05;;;9.23;;
22026;SDS011;11177;50.966;10.070;2023-04-06T05:22:02;14.50;;;9.35;;
22026;SDS011;11177;50.966;10.070;2023-04-06T05:24:29;14.57;;;9.45;;
22026;SDS011;11177;50.966;10.070;2023-04-06T05:26:55;15.75;;;10.05;;
22026;SDS011;11177;50.966;10.070;2023-04-06T05:29:22;16.70;;;10.20;;
22026;SDS011;11177;50.966;10.070;2023-04-06T05:31:50;16.05;;;10.43;;
22026;SDS011;11177;50.966;10.070;2023-04-06T05:34:17;17.77;;;10.63;;
22026;SDS011;11177;50.966;10.070;2023-04-06T05:36:44;16.67;;;10.55;;
22026;SDS011;11177;50.966;10.070;2023-04-06T05:39:11;16.70;;;10.48;;
22026;SDS011;11177;50.966;10.070;2023-04-06T05:41:38;15.25;;;10.60;;
22026;SDS011;11177;50.966;10.070;2023-04-06T05:44:05;19.27;;;10.88;;
22026;SDS011;11177;50.966;10.070;2023-04-06T05:46:32;19.85;;;10.80;;
22026;SDS011;11177;50.966;10.070;2023-04-06T05:48:59;17.02;;;10.88;;
22026;SDS011;11177;50.966;10.070;2023-04-06T05:51:26;18.45;;;10.80;;
22026;SDS011;11177;50.966;10.070;2023-04-06T05:53:53;15.77;;;10.45;;
22026;SDS011;11177;50.966;10.070;2023-04-06T05:56:20;18.88;;;10.70;;
22026;SDS011;11177;50.966;10.070;2023-04-06T05:58:47;18.80;;;10.50;;
22026;SDS011;11177;50.966;10.070;2023-04-06T06:01:14;16.48;;;10.45;;
22026;SDS011;11177;50.966;10.070;2023-04-06T06:03:41;16.35;;;10.63;;
22026;SDS011;11177;50.966;10.070;2023-04-06T06:06:08;19.80;;;10.05;;
22026;SDS011;11177;50.966;10.070;2023-04-06T06:08:35;18.10;;;10.73;;
22026;SDS011;11177;50.966;10.070;2023-04-06T06:11:02;21.65;;;11.30;;
22026;SDS011;11177;50.966;10.070;2023-04-06T06:13:29;15.68;;;11.20;;
22026;SDS011;11177;50.966;10.070;2023-04-06T06:15:56;15.00;;;10.85;;
22026;SDS011;11177;50.966;10.070;2023-04-06T06:18:23;18.45;;;11.32;;
22026;SDS011;11177;50.966;10.070;2023-04-06T06:20:50;16.65;;;11.27;;
22026;SDS011;11177;50.966;10.070;2023-04-06T06:23:17;16.90;;;10.95;;
22026;SDS011;11177;50.966;10.070;2023-04-06T06:25:44;18.17;;;11.60;;
22026;SDS011;11177;50.966;10.070;2023-04-06T06:28:11;19.98;;;11.60;;
22026;SDS011;11177;50.966;10.070;2023-04-06T06:30:38;18.40;;;11.45;;
22026;SDS011;11177;50.966;10.070;2023-04-06T06:33:05;18.48;;;11.95;;
22026;SDS011;11177;50.966;10.070;2023-04-06T06:35:32;19.67;;;12.07;;
22026;SDS011;11177;50.966;10.070;2023-04-06T06:37:59;17.75;;;11.95;;
22026;SDS011;11177;50.966;10.070;2023-04-06T06:40:26;29.50;;;13.40;;
22026;SDS011;11177;50.966;10.070;2023-04-06T06:42:53;19.83;;;12.60;;
22026;SDS011;11177;50.966;10.070;2023-04-06T06:45:20;16.95;;;11.63;;
22026;SDS011;11177;50.966;10.070;2023-04-06T06:47:47;19.00;;;11.98;;
22026;SDS011;11177;50.966;10.070;2023-04-06T06:50:14;18.85;;;11.98;;
22026;SDS011;11177;50.966;10.070;2023-04-06T06:52:41;23.88;;;13.27;;
22026;SDS011;11177;50.966;10.070;2023-04-06T06:55:09;30.65;;;16.80;;
22026;SDS011;11177;50.966;10.070;2023-04-06T06:57:38;29.25;;;17.65;;
22026;SDS011;11177;50.966;10.070;2023-04-06T07:00:05;27.08;;;15.48;;
22026;SDS011;11177;50.966;10.070;2023-04-06T07:02:35;20.75;;;12.13;;
22026;SDS011;11177;50.966;10.070;2023-04-06T07:05:02;17.02;;;10.02;;
22026;SDS011;11177;50.966;10.070;2023-04-06T07:07:49;16.77;;;10.10;;
22026;SDS011;11177;50.966;10.070;2023-04-06T07:10:16;14.40;;;9.25;;
22026;SDS011;11177;50.966;10.070;2023-04-06T07:12:43;14.43;;;9.68;;
22026;SDS011;11177;50.966;10.070;2023-04-06T07:15:10;13.55;;;9.07;;
22026;SDS011;11177;50.966;10.070;2023-04-06T07:17:37;13.07;;;9.80;;
22026;SDS011;11177;50.966;10.070;2023-04-06T07:20:04;13.05;;;9.32;;
22026;SDS011;11177;50.966;10.070;2023-04-06T07:22:32;13.55;;;8.85;;
22026;SDS011;11177;50.966;10.070;2023-04-06T07:24:58;14.95;;;9.20;;
22026;SDS011;11177;50.966;10.070;2023-04-06T07:27:25;13.68;;;9.27;;
22026;SDS011;11177;50.966;10.070;2023-04-06T07:29:52;12.90;;;7.60;;
22026;SDS011;11177;50.966;10.070;2023-04-06T07:32:19;13.00;;;8.13;;
22026;SDS011;11177;50.966;10.070;2023-04-06T07:34:46;10.65;;;7.80;;
22026;SDS011;11177;50.966;10.070;2023-04-06T07:37:13;12.70;;;8.82;;
22026;SDS011;11177;50.966;10.070;2023-04-06T07:39:40;11.57;;;7.80;;
22026;SDS011;11177;50.966;10.070;2023-04-06T07:42:07;10.60;;;6.60;;
22026;SDS011;11177;50.966;10.070;2023-04-06T07:44:33;10.10;;;6.43;;
22026;SDS011;11177;50.966;10.070;2023-04-06T07:47:00;9.43;;;6.70;;
22026;SDS011;11177;50.966;10.070;2023-04-06T07:49:27;11.90;;;7.22;;
22026;SDS011;11177;50.966;10.070;2023-04-06T07:51:54;11.38;;;7.10;;
22026;SDS011;11177;50.966;10.070;2023-04-06T07:54:21;9.82;;;7.07;;
22026;SDS011;11177;50.966;10.070;2023-04-06T07:56:48;9.63;;;7.15;;
22026;SDS011;11177;50.966;10.070;2023-04-06T07:59:14;12.48;;;7.20;;
22026;SDS011;11177;50.966;10.070;2023-04-06T08:01:41;11.63;;;7.47;;
22026;SDS011;11177;50.966;10.070;2023-04-06T08:04:08;9.25;;;6.60;;
22026;SDS011;11177;50.966;10.070;2023-04-06T08:06:36;9.65;;;6.68;;
22026;SDS011;11177;50.966;10.070;2023-04-06T08:09:03;12.30;;;7.38;;
22026;SDS011;11177;50.966;10.070;2023-04-06T08:11:29;10.73;;;6.60;;
22026;SDS011;11177;50.966;10.070;2023-04-06T08:13:56;11.90;;;7.55;;
22026;SDS011;11177;50.966;10.070;2023-04-06T08:16:24;10.40;;;7.07;;
22026;SDS011;11177;50.966;10.070;2023-04-06T08:18:51;10.70;;;6.90;;
22026;SDS011;11177;50.966;10.070;2023-04-06T08:21:17;10.88;;;7.00;;
22026;SDS011;11177;50.966;10.070;2023-04-06T08:23:44;9.18;;;6.65;;
22026;SDS011;11177;50.966;10.070;2023-04-06T08:26:12;9.52;;;6.68;;
22026;SDS011;11177;50.966;10.070;2023-04-06T08:28:39;8.65;;;6.22;;
22026;SDS011;11177;50.966;10.070;2023-04-06T08:31:06;9.52;;;7.00;;
22026;SDS011;11177;50.966;10.070;2023-04-06T08:33:33;11.35;;;6.68;;
22026;SDS011;11177;50.966;10.070;2023-04-06T08:36:12;14.30;;;6.45;;
22026;SDS011;11177;50.966;10.070;2023-04-06T08:38:41;9.88;;;6.35;;
22026;SDS011;11177;50.966;10.070;2023-04-06T08:41:12;11.02;;;7.03;;
22026;SDS011;11177;50.966;10.070;2023-04-06T08:43:47;11.40;;;7.05;;
22026;SDS011;11177;50.966;10.070;2023-04-06T08:46:14;17.95;;;9.23;;
22026;SDS011;11177;50.966;10.070;2023-04-06T08:48:42;10.05;;;6.57;;
22026;SDS011;11177;50.966;10.070;2023-04-06T08:51:09;10.18;;;6.47;;
22026;SDS011;11177;50.966;10.070;2023-04-06T08:53:39;12.77;;;7.35;;
22026;SDS011;11177;50.966;10.070;2023-04-06T08:56:07;10.82;;;7.05;;
22026;SDS011;11177;50.966;10.070;2023-04-06T08:58:37;10.10;;;7.28;;
22026;SDS011;11177;50.966;10.070;2023-04-06T09:01:06;11.13;;;6.80;;
22026;SDS011;11177;50.966;10.070;2023-04-06T09:03:38;8.57;;;6.25;;
22026;SDS011;11177;50.966;10.070;2023-04-06T09:06:07;10.85;;;6.82;;
22026;SDS011;11177;50.966;10.070;2023-04-06T09:08:35;10.38;;;7.18;;
22026;SDS011;11177;50.966;10.070;2023-04-06T09:11:02;9.68;;;6.90;;
22026;SDS011;11177;50.966;10.070;2023-04-06T09:13:30;11.75;;;7.35;;
22026;SDS011;11177;50.966;10.070;2023-04-06T09:16:01;13.35;;;7.70;;
22026;SDS011;11177;50.966;10.070;2023-04-06T09:18:32;13.45;;;7.40;;
22026;SDS011;11177;50.966;10.070;2023-04-06T09:21:03;10.27;;;6.50;;
22026;SDS011;11177;50.966;10.070;2023-04-06T09:23:31;10.48;;;6.93;;
22026;SDS011;11177;50.966;10.070;2023-04-06T09:26:09;9.30;;;6.72;;
22026;SDS011;11177;50.966;10.070;2023-04-06T09:28:41;10.40;;;7.05;;
22026;SDS011;11177;50.966;10.070;2023-04-06T09:31:08;10.00;;;7.03;;
22026;SDS011;11177;50.966;10.070;2023-04-06T09:33:40;12.38;;;7.07;;
22026;SDS011;11177;50.966;10.070;2023-04-06T09:36:08;13.10;;;7.22;;
22026;SDS011;11177;50.966;10.070;2023-04-06T09:38:38;10.82;;;7.28;;
22026;SDS011;11177;50.966;10.070;2023-04-06T09:41:21;10.52;;;7.25;;
22026;SDS011;11177;50.966;10.070;2023-04-06T09:43:52;11.00;;;7.10;;
22026;SDS011;11177;50.966;10.070;2023-04-06T09:46:27;10.30;;;6.88;;
22026;SDS011;11177;50.966;10.070;2023-04-06T09:49:16;9.73;;;6.68;;
22026;SDS011;11177;50.966;10.070;2023-04-06T09:51:49;10.48;;;6.93;;
22026;SDS011;11177;50.966;10.070;2023-04-06T09:54:22;10.73;;;6.70;;
22026;SDS011;11177;50.966;10.070;2023-04-06T09:59:52;9.68;;;6.60;;
22026;SDS011;11177;50.966;10.070;2023-04-06T10:05:50;11.02;;;7.07;;
22026;SDS011;11177;50.966;10.070;2023-04-06T10:08:19;11.93;;;7.25;;
22026;SDS011;11177;50.966;10.070;2023-04-06T10:10:51;10.00;;;7.38;;
22026;SDS011;11177;50.966;10.070;2023-04-06T10:13:20;11.30;;;7.32;;
22026;SDS011;11177;50.966;10.070;2023-04-06T10:15:47;14.15;;;7.95;;
22026;SDS011;11177;50.966;10.070;2023-04-06T10:18:14;11.07;;;7.22;;
22026;SDS011;11177;50.966;10.070;2023-04-06T10:20:55;9.88;;;7.13;;
22026;SDS011;11177;50.966;10.070;2023-04-06T10:23:26;12.35;;;7.63;;
22026;SDS011;11177;50.966;10.070;2023-04-06T10:26:01;12.52;;;7.97;;
22026;SDS011;11177;50.966;10.070;2023-04-06T10:28:33;12.40;;;8.10;;
22026;SDS011;11177;50.966;10.070;2023-04-06T10:31:04;14.05;;;7.50;;
22026;SDS011;11177;50.966;10.070;2023-04-06T10:33:32;10.10;;;7.45;;
22026;SDS011;11177;50.966;10.070;2023-04-06T10:36:20;10.20;;;7.68;;
22026;SDS011;11177;50.966;10.070;2023-04-06T10:38:53;11.85;;;8.32;;
22026;SDS011;11177;50.966;10.070;2023-04-06T10:41:22;11.07;;;7.68;;
22026;SDS011;11177;50.966;10.070;2023-04-06T10:43:55;19.27;;;8.07;;
22026;SDS011;11177;50.966;10.070;2023-04-06T10:46:26;12.13;;;8.35;;
22026;SDS011;11177;50.966;10.070;2023-04-06T10:48:55;12.27;;;8.25;;
22026;SDS011;11177;50.966;10.070;2023-04-06T10:51:26;12.80;;;8.15;;
22026;SDS011;11177;50.966;10.070;2023-04-06T10:53:54;12.48;;;8.30;;
22026;SDS011;11177;50.966;10.070;2023-04-06T10:56:23;11.60;;;7.97;;
22026;SDS011;11177;50.966;10.070;2023-04-06T10:58:56;11.73;;;7.75;;
22026;SDS011;11177;50.966;10.070;2023-04-06T11:01:26;11.93;;;8.50;;
22026;SDS011;11177;50.966;10.070;2023-04-06T11:03:55;14.13;;;8.70;;
22026;SDS011;11177;50.966;10.070;2023-04-06T11:06:28;10.40;;;7.95;;
22026;SDS011;11177;50.966;10.070;2023-04-06T11:08:57;16.00;;;9.00;;
22026;SDS011;11177;50.966;10.070;2023-04-06T11:11:25;10.90;;;8.18;;
22026;SDS011;11177;50.966;10.070;2023-04-06T11:13:54;10.88;;;7.72;;
22026;SDS011;11177;50.966;10.070;2023-04-06T11:18:51;12.70;;;8.10;;
22026;SDS011;11177;50.966;10.070;2023-04-06T11:21:36;11.75;;;7.97;;
22026;SDS011;11177;50.966;10.070;2023-04-06T11:24:18;11.57;;;7.90;;
22026;SDS011;11177;50.966;10.070;2023-04-06T11:26:53;10.15;;;7.57;;
22026;SDS011;11177;50.966;10.070;2023-04-06T11:29:26;11.75;;;7.47;;
22026;SDS011;11177;50.966;10.070;2023-04-06T11:32:01;17.40;;;8.73;;
22026;SDS011;11177;50.966;10.070;2023-04-06T11:34:30;11.13;;;7.38;;
22026;SDS011;11177;50.966;10.070;2023-04-06T11:36:58;12.25;;;7.65;;
22026;SDS011;11177;50.966;10.070;2023-04-06T11:39:27;10.30;;;7.28;;
22026;SDS011;11177;50.966;10.070;2023-04-06T11:41:58;12.05;;;6.88;;
22026;SDS011;11177;50.966;10.070;2023-04-06T11:44:34;7.82;;;6.20;;
22026;SDS011;11177;50.966;10.070;2023-04-06T11:47:02;9.18;;;6.60;;
22026;SDS011;11177;50.966;10.070;2023-04-06T11:49:30;9.38;;;6.72;;
22026;SDS011;11177;50.966;10.070;2023-04-06T11:51:58;10.07;;;7.10;;
22026;SDS011;11177;50.966;10.070;2023-04-06T11:54:37;12.70;;;7.50;;
22026;SDS011;11177;50.966;10.070;2023-04-06T11:57:08;13.23;;;7.30;;
22026;SDS011;11177;50.966;10.070;2023-04-06T11:59:35;13.18;;;8.07;;
22026;SDS011;11177;50.966;10.070;2023-04-06T12:02:03;10.27;;;6.68;;
22026;SDS011;11177;50.966;10.070;2023-04-06T12:04:30;9.13;;;6.90;;
22026;SDS011;11177;50.966;10.070;2023-04-06T12:06:58;11.13;;;6.90;;
22026;SDS011;11177;50.966;10.070;2023-04-06T12:09:24;10.82;;;7.30;;
22026;SDS011;11177;50.966;10.070;2023-04-06T12:11:51;9.73;;;6.60;;
22026;SDS011;11177;50.966;10.070;2023-04-06T12:14:18;11.95;;;7.72;;
22026;SDS011;11177;50.966;10.070;2023-04-06T12:16:46;11.68;;;8.07;;
22026;SDS011;11177;50.966;10.070;2023-04-06T12:19:13;10.52;;;6.63;;
22026;SDS011;11177;50.966;10.070;2023-04-06T12:21:40;8.70;;;5.97;;
22026;SDS011;11177;50.966;10.070;2023-04-06T12:24:09;7.43;;;5.97;;
22026;SDS011;11177;50.966;10.070;2023-04-06T12:26:35;9.10;;;5.97;;
22026;SDS011;11177;50.966;10.070;2023-04-06T12:29:03;8.07;;;6.32;;
22026;SDS011;11177;50.966;10.070;2023-04-06T12:31:34;9.23;;;6.13;;
22026;SDS011;11177;50.966;10.070;2023-04-06T12:34:03;8.48;;;5.60;;
22026;SDS011;11177;50.966;10.070;2023-04-06T12:36:30;10.52;;;6.57;;
22026;SDS011;11177;50.966;10.070;2023-04-06T12:38:57;9.73;;;6.05;;
22026;SDS011;11177;50.966;10.070;2023-04-06T12:41:24;7.28;;;5.90;;
22026;SDS011;11177;50.966;10.070;2023-04-06T12:43:52;9.85;;;6.10;;
22026;SDS011;11177;50.966;10.070;2023-04-06T12:46:19;8.10;;;5.80;;
22026;SDS011;11177;50.966;10.070;2023-04-06T12:48:50;9.05;;;6.00;;
22026;SDS011;11177;50.966;10.070;2023-04-06T12:51:24;7.25;;;5.47;;
22026;SDS011;11177;50.966;10.070;2023-04-06T12:53:54;10.48;;;5.57;;
22026;SDS011;11177;50.966;10.070;2023-04-06T12:56:22;7.95;;;5.78;;
22026;SDS011;11177;50.966;10.070;2023-04-06T12:58:50;8.60;;;5.38;;
22026;SDS011;11177;50.966;10.070;2023-04-06T13:01:18;9.23;;;6.07;;
22026;SDS011;11177;50.966;10.070;2023-04-06T13:03:45;10.65;;;6.35;;
22026;SDS011;11177;50.966;10.070;2023-04-06T13:06:12;9.02;;;6.07;;
22026;SDS011;11177;50.966;10.070;2023-04-06T13:08:41;10.15;;;6.03;;
22026;SDS011;11177;50.966;10.070;2023-04-06T13:11:09;9.73;;;5.80;;
22026;SDS011;11177;50.966;10.070;2023-04-06T13:13:36;8.18;;;5.50;;
22026;SDS011;11177;50.966;10.070;2023-04-06T13:16:04;8.25;;;5.40;;
22026;SDS011;11177;50.966;10.070;2023-04-06T13:18:33;6.72;;;5.30;;
22026;SDS011;11177;50.966;10.070;2023-04-06T13:21:01;6.40;;;5.32;;
22026;SDS011;11177;50.966;10.070;2023-04-06T13:23:28;8.57;;;5.32;;
22026;SDS011;11177;50.966;10.070;2023-04-06T13:26:01;8.27;;;5.25;;
22026;SDS011;11177;50.966;10.070;2023-04-06T13:28:29;6.35;;;4.85;;
22026;SDS011;11177;50.966;10.070;2023-04-06T13:30:58;8.23;;;5.45;;
22026;SDS011;11177;50.966;10.070;2023-04-06T13:33:26;6.13;;;5.00;;
22026;SDS011;11177;50.966;10.070;2023-04-06T13:35:53;7.97;;;5.20;;
22026;SDS011;11177;50.966;10.070;2023-04-06T13:38:20;6.95;;;5.38;;
22026;SDS011;11177;50.966;10.070;2023-04-06T13:40:47;8.57;;;5.35;;
22026;SDS011;11177;50.966;10.070;2023-04-06T13:43:16;9.80;;;5.03;;
22026;SDS011;11177;50.966;10.070;2023-04-06T13:45:50;7.97;;;5.50;;
22026;SDS011;11177;50.966;10.070;2023-04-06T13:48:17;7.50;;;5.45;;
22026;SDS011;11177;50.966;10.070;2023-04-06T13:50:45;8.30;;;6.13;;
22026;SDS011;11177;50.966;10.070;2023-04-06T13:53:12;7.43;;;5.80;;
22026;SDS011;11177;50.966;10.070;2023-04-06T13:55:43;7.97;;;5.53;;
22026;SDS011;11177;50.966;10.070;2023-04-06T13:58:19;6.82;;;5.57;;
22026;SDS011;11177;50.966;10.070;2023-04-06T14:00:46;7.03;;;5.25;;
22026;SDS011;11177;50.966;10.070;2023-04-06T14:03:13;6.68;;;4.95;;
22026;SDS011;11177;50.966;10.070;2023-04-06T14:05:44;8.80;;;4.80;;
22026;SDS011;11177;50.966;10.070;2023-04-06T14:08:11;7.72;;;4.90;;
22026;SDS011;11177;50.966;10.070;2023-04-06T14:10:39;7.95;;;5.65;;
22026;SDS011;11177;50.966;10.070;2023-04-06T14:13:06;8.10;;;5.90;;
22026;SDS011;11177;50.966;10.070;2023-04-06T14:15:34;8.85;;;5.72;;
22026;SDS011;11177;50.966;10.070;2023-04-06T14:18:01;8.23;;;5.60;;
22026;SDS011;11177;50.966;10.070;2023-04-06T14:20:30;8.25;;;5.63;;
22026;SDS011;11177;50.966;10.070;2023-04-06T14:23:02;7.55;;;5.35;;
22026;SDS011;11177;50.966;10.070;2023-04-06T14:25:29;7.13;;;5.47;;
22026;SDS011;11177;50.966;10.070;2023-04-06T14:28:01;8.05;;;5.70;;
22026;SDS011;11177;50.966;10.070;2023-04-06T14:30:29;9.52;;;5.68;;
22026;SDS011;11177;50.966;10.070;2023-04-06T14:32:57;6.32;;;5.13;;
22026;SDS011;11177;50.966;10.070;2023-04-06T14:35:24;11.05;;;5.40;;
22026;SDS011;11177;50.966;10.070;2023-04-06T14:37:51;9.88;;;5.43;;